Flight Track Log - Related Links

Times and Time Zones

All times are in EDT time to prevent confusion due to time zone crossing. See the ASQ5301 flight status page for this flight to view local times or setup timezone preferences in your user account.

Time Position Orientation Groundspeed Altitude Reporting Facility
EDT Latitude Longitude Course Direction KTS MPH feet Rate Location/Type
Fri 08:33:30 PM 32.3839 -86.3878 55° Northeast 239 275 4,900  Level Atlanta Center
Fri 08:34:30 PM 32.4292 -86.3128 54° Northeast 295 339 7,200 2,300 Climbing Atlanta Center
Fri 08:35:30 PM 32.4744 -86.2325 56° Northeast 300 345 9,500 1,750 Climbing Atlanta Center
Fri 08:36:30 PM 32.5217 -86.1500 56° Northeast 300 345 10,700 1,100 Climbing Atlanta Center
Fri 08:37:00 PM 32.5627 -85.9512 55° Northeast  Level FlightAware Approximate
Fri 08:37:30 PM 32.5817 -86.0553 53° Northeast 319 367 11,700  Level Atlanta Center
Fri 08:38:00 PM 32.6063 -85.8785 55° Northeast  Level FlightAware Approximate
Fri 08:38:30 PM 32.6603 -85.9781 40° Northeast 341 392 12,900  Level Atlanta Center
Fri 08:39:30 PM 32.7328 -85.8808 48° Northeast 366 421 13,700 800 Climbing Atlanta Center
Fri 08:40:30 PM 32.7992 -85.7589 57° Northeast 386 444 14,500 1,000 Climbing Atlanta Center
Fri 08:41:30 PM 32.8592 -85.6486 57° Northeast 392 451 15,700 950 Climbing Atlanta Center
Fri 08:42:30 PM 32.9169 -85.5358 59° Northeast 392 451 16,400 650 Climbing Atlanta Center
Fri 08:43:30 PM 32.9786 -85.4206 57° Northeast 403 464 17,000 300 Climbing Atlanta Center
Fri 08:44:30 PM 33.0406 -85.3025 58° Northeast 408 470 17,000 -400 Level Atlanta Center
Fri 08:45:30 PM 33.0917 -85.2067 58° Northeast 396 456 16,200 -2,150 Descending Atlanta Center
Fri 08:46:30 PM 33.1511 -85.0958 57° Northeast 396 456 12,700 -2,150 Descending Atlanta Center
Fri 08:47:30 PM 33.2081 -85.0094 52° Northeast 357 411 11,900 -1,500 Descending Atlanta Center
Fri 08:48:30 PM 33.2608 -84.9331 50° Northeast 312 359 9,700 -1,950 Descending Atlanta Center
Fri 08:49:30 PM 33.3156 -84.8592 48° Northeast 298 343 8,000 -1,500 Descending Atlanta Center
Fri 08:50:30 PM 33.3847 -84.8250 22° Northeast 257 296 6,700 -1,400 Descending Atlanta Center
Fri 08:51:30 PM 33.4578 -84.8331 355° North 246 283 5,200 -1,450 Descending Atlanta Center
Fri 08:52:30 PM 33.5267 -84.8364 358° North 251 289 3,800 -1,100 Descending Atlanta Center
Fri 08:53:30 PM 33.5853 -84.7919 32° Northeast 238 274 3,000 -400 Descending Atlanta Center
Fri 08:54:30 PM 33.6086 -84.7247 67° East 212 244 3,000  Level Atlanta Center
Fri 08:56:52 PM 33.6167 -84.5667 86° East 194 223 3,000 -297 Level Atlanta TRACON
Fri 08:57:52 PM 33.6167 -84.5167 90° East 165 190 2,000 -850 Descending Atlanta TRACON
Fri 08:58:52 PM 33.6167 -84.4667 90° East 153 176 1,300 -700 Descending Atlanta TRACON
Fri 09:00:00 PM 33.6333 -84.4167 73° East  Level FlightAware Approximate
Fri 09:07:00 PM 33.6367 -84.4279 73° East  Level Estimated
Fri 09:08:00 PM 33.6367 -84.4279 73° East  Level Estimated

Login

Don't have an account? Register now (free) for customized features, flight alerts, and more!